Grayson, LA

10:37 AM CDT on July 31, 2014 (GMT -0500)
Monroe Regional (KMLU) Elev 79 ft | 32.51 °N, 92.04 °W | Change Station

Current weather conditions updated 44 minutes ago

Mostly Cloudy
Mostly Cloudy
73 °F
Feels Like 73 °F
N
6
Wind Variable Wind from ENE

Today is forecast to be Cooler than yesterday. Scattered thunderstorms tonight.

Today
High -- | Low -- °F
--% Chance of Precip.
Yesterday
High -- | Low -- °F
Precip. -- in
6:22 AM 8:05 PM
Waxing Crescent, 19% visible
Pressure 30.07 in
Visibility 10.0 miles
Clouds Few 5000 ft
Mostly Cloudy 11000 ft
Dew Point 65 °F
Humidity 76%
Rainfall 0.00 in
Snow Depth Not available.
UV 3 out of 12
Pollen 3.20 out of 12
Air Quality Not available.
Flu Activity Not available.
METAR KMLU 311453Z 07005KT 10SM FEW050 BKN110 23/18 A3007 RMK AO2 SLP182 60000 T02280183 51003

More Conditions Fewer Conditions

Pressure 30.07 in
Visibility 10.0 miles
Clouds Few 5000 ft
Mostly Cloudy 11000 ft
Dew Point 65 °F
Humidity 76%
Rainfall 0.00 in
Snow Depth Not available.
UV 3 out of 12
Pollen 3.20 out of 12
Air Quality Not available.
Flu Activity Not available.
METAR KMLU 311453Z 07005KT 10SM FEW050 BKN110 23/18 A3007 RMK AO2 SLP182 60000 T02280183 51003

More Conditions Fewer Conditions

Nowcast | as of 8:49 am CDT on July 31, 2014

Widespread rain showers continue across the four state region this morning. The heavier downpours will move across Longview and Marshall. Movement of this activity was to the southeast near 20 mph. Rainfall rates will be light...except near thunderstorms...where rates could reach one quarter to one half inch per hour.

×

10-Day Weather Forecast

Almanac

Astronomy

Jul. 31, 2014 Rise Set
Actual Time 6:22 AM CDT 8:05 PM CDT
Civil Twilight 5:55 AM CDT 8:32 PM CDT
Nautical Twilight 5:23 AM CDT 9:04 PM CDT
Astronomical Twilight 4:49 AM CDT 9:37 PM CDT
Moon 10:31 AM CDT 10:38 PM CDT
Length of Visible Light 14h 36m
Length of Day
13h 43m
Tomorrow will be 1m 28s shorter.
Waxing Crescent, 19% of the Moon is Illuminated
Today
Waxing Crescent
Aug 3
First Quarter
Aug 10
Full
Aug 17
Last Quarter
Aug 25
New

Today's Extremes

State Highs State Lows

Community

WunderPhotos

Upload Photos

1,739,357 photos uploaded!

Nearby

Snow Depth

Station Depth Elevation
No new snow has been reported.

Earthquake Activity

City Distance Mag. Time & Date
No recent earthquake activity has been reported nearby.
Minimum magnitude displayed is 2.5.

Coastal Water Temperatures

Place Temperature
No Stations Reporting

Nearby Weather Stations

Station Location Temp. Dew Point Humidity Wind Precip. Elev Updated Type
MesoWest GRAYSN , Clarks, LA 72 °F - - North  at  - 0.00 in / hr 178 ft 9:10 AM CDT MADIS
MesoWest RIVRTN , Columbia, LA 72 °F - - North  at  - 0.00 in / hr 74 ft 9:30 AM CDT MADIS

Show More Stations Show Fewer Stations